Terminal Aerodrome Forecast
Issued by NWS Tulsa, OK

Current Version | Previous Version | Text Only | Print | Product List | Glossary On
Versions: 1 2 3 4 5 6 7 8 9 10 11 12 13 14 15 16 17 18 19
000
FTUS44 KTSA 052320
TAFFSM
TAF
KFSM 052320Z 0600/0624 07012KT P6SM OVC090
     FM060200 08004KT 5SM -RA BR OVC015
      TEMPO 0602/0606 2SM -RA BR OVC007
     FM060600 VRB03KT 2SM -DZ BR OVC007
      TEMPO 0606/0610 1SM -DZ BR OVC004
     FM061200 31008KT P6SM OVC012
     FM061600 32012KT P6SM BKN025
     FM062000 34011KT P6SM BKN250=

USA.gov is the U.S. government's official web portal to all federal, state and local government web resources and services.